WMKN/TGG METAR and TAF weather

Enter ICAO airport designator
Station Type Date Time Source
WMKN METAR 2021/07/26 16:00 UTC NOAA

WMKN 261600Z VRB02KT 9999 TS FEW017CB SCT022 28/26 Q1009


Station Type Date Time Source
WMKN Decoded METAR 2021/07/26 16:00 UTC NOAA

Station name not available
Jul 26, 2021 - 12:00 PM EDT / 2021.07.26 1600 UTC
Wind: Variable at 2 MPH (2 KT):0
Visibility: greater than 7 mile(s):0
Sky conditions: partly cloudy
Weather: thunder; Cumulonimbus clouds observed
Temperature: 82 F (28 C)
Dew Point: 78 F (26 C)
Relative Humidity: 88%
Pressure (altimeter): 29.80 in. Hg (1009 hPa)
ob: WMKN 261600Z VRB02KT 9999 TS FEW017CB SCT022 28/26 Q1009
cycle: 16

Station Type Date Time Source
WMKN TAF 2021/07/26 12:00 UTC NOAA

TAF WMKN 261100Z 2612/2712 VRB03KT 9999 FEW022
BECMG 2622/2700 19005KT FEW020

Example: see airport list